»·PEaware :: N6233G KSBP-KOXR

N6233G :: KSBP-KOXR

FLIGHT INFORMATION

Flight Status: Arrived
Operator: Privately registered:
United States
More flights under this callsign
Pilot: Mark B. (9455)
Aircraft: BEECH AIRCRAFT BONANZA
(BE36)
More flights by this aircraft type
Origin: KSBP San Luis Co Regl
United States
Destination: KOXR Oxnard
United States
More flights between these airports :: More routes between these airports
Route: RZS VTU
File this flight plan on PilotEdge
Remarks: ZULU wx
Altitude:
(Current/Filed)
7,000ft
Speed:
(Current/Filed)
185kts
Departed: 15-Apr-20 07:14 PM
Arrived: 15-Apr-20 08:08 PM
Distance/Time
Traveled:
94nm/0:54
Distance/Time
To Go:
Arrived

Flight Plot

Page will automatically refresh every two minutes.


Map Options




Map Legend


Flown Route
Filed Route
Departure Airport
Arrival Airport
Navaid (VOR, NDB)
Fix

Horizontal Profiles

Position Reports

Time Latitude Longitude Heading Altitude Ground
Speed
15-Apr-20 18:52 35.239066 -120.641591 350 186ft 0kts
15-Apr-20 18:53 35.239066 -120.641591 350 186ft 0kts
15-Apr-20 18:54 35.239066 -120.641591 350 186ft 0kts
15-Apr-20 18:55 35.239066 -120.641591 350 186ft 0kts
15-Apr-20 18:56 35.239066 -120.641591 350 186ft 0kts
15-Apr-20 18:57 35.239066 -120.641591 350 186ft 0kts
15-Apr-20 18:58 35.239066 -120.641591 350 186ft 0kts
15-Apr-20 18:59 35.239066 -120.641591 350 186ft 0kts
15-Apr-20 19:00 35.239066 -120.641591 350 186ft 0kts
15-Apr-20 19:01 35.239066 -120.641591 350 186ft 0kts
15-Apr-20 19:02 35.239066 -120.641591 350 186ft 0kts
15-Apr-20 19:03 35.239066 -120.641591 350 186ft 0kts
15-Apr-20 19:04 35.239066 -120.641591 350 186ft 0kts
15-Apr-20 19:05 35.239066 -120.641591 350 186ft 0kts
15-Apr-20 19:06 35.239066 -120.641591 350 186ft 0kts
15-Apr-20 19:07 35.238049 -120.640478 120 190ft 22kts
15-Apr-20 19:08 35.233831 -120.632907 125 212ft 19kts
15-Apr-20 19:10 35.233498 -120.632476 160 212ft 0kts
15-Apr-20 19:11 35.233498 -120.632476 160 212ft 0kts
15-Apr-20 19:12 35.233498 -120.632476 160 212ft 0kts
15-Apr-20 19:13 35.233385 -120.632447 175 212ft 7kts
15-Apr-20 19:14 35.242570 -120.645353 326 697ft 89kts
15-Apr-20 19:15 35.261344 -120.672707 306 1910ft 108kts
15-Apr-20 19:16 35.278730 -120.700966 309 2899ft 121kts
15-Apr-20 19:17 35.298863 -120.734894 300 4057ft 122kts
15-Apr-20 19:18 35.297656 -120.773618 226 5170ft 124kts
15-Apr-20 19:19 35.264975 -120.777359 174 6276ft 124kts
15-Apr-20 19:20 35.236587 -120.752922 124 6967ft 148kts
15-Apr-20 19:21 35.207876 -120.710539 132 6981ft 169kts
15-Apr-20 19:22 35.175504 -120.666947 132 6980ft 176kts
15-Apr-20 19:23 35.142648 -120.622303 132 6979ft 177kts
15-Apr-20 19:24 35.109651 -120.577479 132 6979ft 177kts
15-Apr-20 19:25 35.076733 -120.532817 132 6979ft 177kts
15-Apr-20 19:26 35.043687 -120.488042 132 6979ft 177kts
15-Apr-20 19:27 35.010677 -120.443372 132 6979ft 177kts
15-Apr-20 19:28 34.977261 -120.398275 132 6980ft 181kts
15-Apr-20 19:28 34.949110 -120.360281 132 6979ft 181kts
15-Apr-20 19:30 34.909684 -120.307139 132 6979ft 181kts
15-Apr-20 19:31 34.875800 -120.261532 132 6979ft 181kts
15-Apr-20 19:31 34.847484 -120.223660 132 6979ft 181kts
15-Apr-20 19:32 34.813333 -120.178409 132 6979ft 181kts
15-Apr-20 19:34 34.773841 -120.125530 132 6979ft 181kts
15-Apr-20 19:34 34.745528 -120.087621 132 6979ft 181kts
15-Apr-20 19:35 34.711581 -120.042226 132 6979ft 181kts
15-Apr-20 19:36 34.677677 -119.996947 132 6979ft 181kts
15-Apr-20 19:37 34.643731 -119.951679 132 6979ft 181kts
15-Apr-20 19:38 34.609759 -119.906420 132 6979ft 181kts
15-Apr-20 19:39 34.576009 -119.861094 132 6979ft 181kts
15-Apr-20 19:40 34.542079 -119.815767 132 6979ft 181kts
15-Apr-20 19:41 34.508178 -119.770373 130 6978ft 181kts
15-Apr-20 19:42 34.480656 -119.719308 123 6979ft 181kts
15-Apr-20 19:43 34.453127 -119.667936 123 6979ft 181kts
15-Apr-20 19:44 34.425476 -119.617054 123 6979ft 181kts
15-Apr-20 19:45 34.398964 -119.563142 118 6449ft 201kts
15-Apr-20 19:46 34.368257 -119.505192 123 5295ft 209kts
15-Apr-20 19:47 34.337402 -119.451204 129 5028ft 185kts
15-Apr-20 19:48 34.304900 -119.404305 130 5020ft 179kts
15-Apr-20 19:49 34.269112 -119.367473 197 5004ft 173kts
15-Apr-20 19:50 34.241182 -119.400219 202 4354ft 135kts
15-Apr-20 19:51 34.212511 -119.424100 220 3139ft 123kts
15-Apr-20 19:52 34.199810 -119.452953 302 3043ft 89kts
15-Apr-20 19:53 34.218805 -119.474821 297 2975ft 96kts
15-Apr-20 19:54 34.220516 -119.508634 270 2978ft 104kts
15-Apr-20 19:55 34.218517 -119.543464 250 2977ft 104kts
15-Apr-20 19:56 34.199400 -119.539038 91 2978ft 103kts
15-Apr-20 19:57 34.199489 -119.503817 89 2976ft 105kts
15-Apr-20 19:58 34.200989 -119.468685 86 2977ft 105kts
15-Apr-20 19:59 34.202114 -119.433386 90 2935ft 109kts
15-Apr-20 20:00 34.204335 -119.400587 83 2975ft 90kts
15-Apr-20 20:01 34.206343 -119.367726 90 2185ft 108kts
15-Apr-20 20:02 34.202021 -119.330793 90 1743ft 90kts
15-Apr-20 20:03 34.200981 -119.300250 87 1445ft 94kts
15-Apr-20 20:04 34.201243 -119.269316 90 925ft 92kts
15-Apr-20 20:05 34.201503 -119.239627 87 507ft 81kts
15-Apr-20 20:06 34.200856 -119.214006 88 38ft 59kts
15-Apr-20 20:07 34.199823 -119.207028 160 36ft 0kts

Navigation Log

Ident Type
Flight plan parsing failed, navigation log unavailable